Kenosha Regional Airport
KENW : now visible

Airfield :











YOU CAN JOIN US ON...

 
LOGIN :

Register | Disclaimer

   EN    FR    IT 

 









Legend :    VFR   Marginal VFR   IFR   Intensive IFR   Very Intensive IFR
Visi :
Ceiling :
>= 8 km
>= 3000ft
5 to 8 km
1000 to 3000 ft
1500m to 5 km
500 to 1000 ft
800 to 1500m
200 to 500 ft
< 800m
< 200 ft
Symbols :   Thunderstorms  Fog  Heavy snow  Heavy precipitations  Wind > 20 kt







- Airport Elevation : 742 ft


KENW - Kenosha Regional

CURRENT METAR :
  • 181853Z 18013G25KT 10SM CLR 28/23 A2976 RMK AO2 SLP072 T02830228

EXPIRED METARs :
  • 181753Z 17015G27KT 10SM CLR 26/23 A2981 RMK AO2 PK WND 16028/1724 SLP089 60090 T02560228 10261 20228 58031
  • 181653Z 15016G25KT 10SM FEW110 23/21 A2984 RMK AO2 LTG DSNT S RAE36 TSE1556B1557E31 PRESFR SLP100 P0003 T02280211
  • 181635Z 17011KT 10SM -RA FEW110 23/22 A2990 RMK AO2 TSE1556B1557E31 OCNL LTGIC W TS W MOV W P0003 T02280217

TAF KENW
Valid from the 18 at 18:00 until the 19 at 18:00 UTC


181740Z 1818/1918 16015G30KT P6SM SCT050 BKN150
FM182000 18012G23KT P6SM SCT040 BKN150
FM182200 22012G23KT P6SM SCT100
FM190200 22009KT P6SM SCT100
FM190900 24008KT P6SM VCSH SCT100 WS020/24035KT
FM191200 23010KT P6SM SCT150
FM191500 24012G20KT P6SM SCT090
KZAU FIR / North America



MET'MAP, your aeronautical weather chart ! - Copyright ORBIFLY December 2007 - Disclaimer

ORBIFLY MET'MAP TEAM :

Programming & Development : Alexandra Zaïnal
Concept & Development : Baudouin d'Aumeries
Co-Development & Prog : Marc-Olivier Méhu
Technical & hardware support : Manuel Goepfert

Contact : metmap@orbifly.com




SOURCES & CREDITS :

   NOAA       Earth
Advisory